Time;durP1;ratioP1;P1;durP2;ratioP2;P2;SDS_P1;SDS_P2;PMS_P1;PMS_P2;Temp;Humidity;BMP_temperature;BMP_pressure;BME280_temperature;BME280_humidity;BME280_pressure;Samples;Min_cycle;Max_cycle;Signal;HPM_P1;HPM_P2
2022/10/07 00:02:13;;;;;;;0.00;0.00;;;;;;;15.94;66.69;100966.78;7366153;19;20026;-57
2022/10/07 00:04:44;;;;;;;0.00;0.00;;;;;;;15.94;66.51;100953.63;7366745;19;20014;-59
2022/10/07 00:07:09;;;;;;;0.00;0.00;;;;;;;15.94;66.57;100940.44;7367320;19;20094;-59
2022/10/07 00:09:34;;;;;;;0.00;0.00;;;;;;;15.94;66.29;100945.72;7362258;19;20102;-59
2022/10/07 00:12:00;;;;;;;0.00;0.00;;;;;;;15.94;66.14;100936.03;7364762;19;20034;-59
2022/10/07 00:14:26;;;;;;;0.00;0.00;;;;;;;15.97;66.22;100966.66;7364232;19;20094;-59
2022/10/07 00:16:51;;;;;;;0.00;0.00;;;;;;;15.95;66.47;100926.34;7366579;19;20470;-58
2022/10/07 00:19:16;;;;;;;0.00;0.00;;;;;;;15.93;66.10;100915.03;7365515;19;20018;-59
2022/10/07 00:21:42;;;;;;;0.00;0.00;;;;;;;15.91;66.33;100914.22;7365428;19;20035;-58
2022/10/07 00:24:09;;;;;;;0.00;0.00;;;;;;;15.92;66.19;100923.88;7363883;19;20361;-59
2022/10/07 00:26:35;;;;;;;0.00;0.00;;;;;;;15.91;66.42;100922.13;7365042;19;20024;-57
2022/10/07 00:29:02;;;;;;;0.05;0.05;;;;;;;15.93;65.95;100920.31;7366439;19;20035;-59
2022/10/07 00:31:30;;;;;;;0.00;0.00;;;;;;;15.92;66.12;100905.44;7362784;19;20014;-58
2022/10/07 00:33:56;;;;;;;0.00;0.00;;;;;;;15.91;65.79;100908.94;7366198;19;20577;-59
2022/10/07 00:36:25;;;;;;;0.08;0.08;;;;;;;15.91;65.74;100901.91;7365058;19;20010;-59
2022/10/07 00:38:52;;;;;;;0.00;0.00;;;;;;;15.91;65.99;100906.31;7365023;19;20038;-59
2022/10/07 00:41:31;;;;;;;0.00;0.00;;;;;;;15.93;66.02;100896.59;7365660;19;20017;-59
2022/10/07 00:43:58;;;;;;;0.10;0.10;;;;;;;15.79;66.31;100869.03;7364044;19;20530;-56
2022/10/07 00:46:37;;;;;;;0.08;0.08;;;;;;;15.95;66.13;100881.56;7364827;19;20773;-59
2022/10/07 00:49:09;;;;;;;0.00;0.00;;;;;;;15.94;66.47;100871.97;7364747;19;20023;-59
2022/10/07 00:51:36;;;;;;;0.10;0.10;;;;;;;15.93;66.11;100865.00;7365290;19;20721;-58
2022/10/07 00:54:06;;;;;;;0.00;0.00;;;;;;;15.99;65.62;100854.19;7364351;19;20040;-57
2022/10/07 00:56:32;;;;;;;0.00;0.00;;;;;;;15.96;66.49;100846.41;7364918;19;20006;-59
2022/10/07 00:58:58;;;;;;;0.00;0.00;;;;;;;15.99;66.24;100854.19;7365885;19;20796;-58
2022/10/07 01:01:25;;;;;;;0.00;0.00;;;;;;;15.94;66.28;100845.63;7363912;19;20010;-58
2022/10/07 01:03:52;;;;;;;0.00;0.00;;;;;;;16.01;66.06;100854.97;7361420;19;20018;-58
2022/10/07 01:06:17;;;;;;;0.05;0.05;;;;;;;16.01;66.07;100847.06;7358636;19;20050;-57
2022/10/07 01:08:45;;;;;;;0.00;0.00;;;;;;;15.94;65.96;100835.09;7364224;19;20007;-58
2022/10/07 01:11:43;;;;;;;0.00;0.00;;;;;;;15.95;65.72;100810.47;7363467;19;20730;-58
2022/10/07 01:14:19;;;;;;;0.10;0.10;;;;;;;16.06;65.59;100829.28;7262440;19;2004287;-59
2022/10/07 01:16:48;;;;;;;0.00;0.00;;;;;;;16.10;65.99;100838.78;7362912;19;20010;-59
2022/10/07 01:19:47;;;;;;;0.10;0.10;;;;;;;16.12;65.67;100850.13;7364848;19;20022;-58
2022/10/07 01:22:31;;;;;;;0.10;0.10;;;;;;;16.12;65.41;100828.16;7260728;19;2004702;-59
2022/10/07 01:25:53;;;;;;;0.00;0.00;;;;;;;16.14;65.36;100827.19;7363794;19;20866;-59
2022/10/07 01:28:26;;;;;;;0.00;0.00;;;;;;;16.11;65.53;100822.03;7156257;19;2004522;-59
2022/10/07 01:30:56;;;;;;;0.03;0.03;;;;;;;16.13;65.33;100840.44;7363295;19;20754;-59
2022/10/07 01:33:27;;;;;;;0.03;0.03;;;;;;;16.15;65.85;100813.09;7363722;19;20078;-58
2022/10/07 01:35:56;;;;;;;0.00;0.00;;;;;;;16.13;66.11;100804.41;7365214;19;20014;-59
2022/10/07 01:38:25;;;;;;;0.00;0.00;;;;;;;16.15;65.75;100818.34;7363922;19;20010;-59
2022/10/07 01:41:03;;;;;;;0.00;0.00;;;;;;;16.10;65.89;100796.63;7363193;19;20027;-58
2022/10/07 01:43:31;;;;;;;0.05;0.05;;;;;;;16.21;65.54;100796.16;7363030;19;20789;-59
2022/10/07 01:45:56;;;;;;;;;;;;;;;16.24;65.42;100811.84;7363558;19;20482;-57
2022/10/07 01:48:22;;;;;;;0.00;0.00;;;;;;;16.22;65.61;100788.19;7363964;19;19922;-59
2022/10/07 01:50:49;;;;;;;0.10;0.10;;;;;;;16.17;65.78;100763.84;7360518;19;20425;-58
2022/10/07 01:53:41;;;;;;;;;;;;;;;16.27;65.48;100790.59;7363881;19;20014;-59
2022/10/07 01:56:06;;;;;;;0.00;0.00;;;;;;;16.26;65.16;100768.66;7258323;19;2004541;-59
2022/10/07 01:58:53;;;;;;;0.10;0.10;;;;;;;16.26;65.37;100767.81;7351089;19;20017;-58
2022/10/07 02:01:24;;;;;;;0.00;0.00;;;;;;;16.24;65.27;100770.53;7360214;19;20466;-57
2022/10/07 02:04:12;;;;;;;0.00;0.00;;;;;;;16.23;65.37;100762.69;7357170;19;20018;-59
2022/10/07 02:06:50;;;;;;;0.00;0.00;;;;;;;16.17;65.72;100747.13;7357274;19;20013;-59
2022/10/07 02:09:49;;;;;;;0.00;0.00;;;;;;;16.18;65.37;100744.47;7360128;19;20002;-57
2022/10/07 02:12:25;;;;;;;0.00;0.00;;;;;;;16.17;65.65;100732.22;7256249;19;2004181;-59
2022/10/07 02:15:09;;;;;;;0.00;0.00;;;;;;;16.15;65.64;100749.84;7357659;19;20006;-58
2022/10/07 02:17:41;;;;;;;0.10;0.10;;;;;;;16.09;66.23;100734.31;7360410;19;20018;-58
2022/10/07 02:20:09;;;;;;;0.00;0.00;;;;;;;16.05;66.17;100733.59;7366334;19;20090;-58
2022/10/07 02:22:35;;;;;;;0.00;0.00;;;;;;;16.02;66.04;100717.94;7362972;19;20014;-58
2022/10/07 02:25:00;;;;;;;0.10;0.10;;;;;;;16.02;66.21;100706.56;7364555;19;20006;-57
2022/10/07 02:27:31;;;;;;;0.00;0.00;;;;;;;16.03;66.41;100713.53;7365499;19;20454;-58
2022/10/07 02:30:02;;;;;;;0.10;0.10;;;;;;;15.99;66.39;100711.97;7365446;19;20034;-58
2022/10/07 02:32:29;;;;;;;0.10;0.10;;;;;;;16.04;66.11;100709.97;7363441;19;20013;-58
2022/10/07 02:35:04;;;;;;;0.03;0.03;;;;;;;16.03;66.19;100695.09;7365492;19;20010;-58
2022/10/07 02:37:34;;;;;;;0.00;0.00;;;;;;;16.00;66.49;100687.31;7364790;19;20006;-57
2022/10/07 02:40:03;;;;;;;0.10;0.10;;;;;;;15.96;66.49;100681.34;7364945;19;20014;-59
2022/10/07 02:42:38;;;;;;;0.10;0.10;;;;;;;15.94;66.54;100669.16;7364034;19;20013;-58
2022/10/07 02:45:17;;;;;;;0.00;0.00;;;;;;;15.99;66.49;100675.09;7364209;19;20013;-59
2022/10/07 02:47:49;;;;;;;0.00;0.00;;;;;;;15.92;66.63;100652.59;7363107;19;20015;-59
2022/10/07 02:50:23;;;;;;;0.00;0.00;;;;;;;15.99;66.76;100667.19;7365261;19;20006;-59
2022/10/07 02:52:54;;;;;;;0.00;0.00;;;;;;;15.98;66.77;100653.16;7364449;19;20006;-59
2022/10/07 02:55:25;;;;;;;0.10;0.10;;;;;;;15.99;66.65;100648.75;7363951;19;20015;-58
2022/10/07 02:57:56;;;;;;;0.03;0.03;;;;;;;15.96;67.05;100660.25;7361371;19;20003;-59
2022/10/07 03:00:22;;;;;;;0.00;0.00;;;;;;;15.96;66.82;100643.59;7363370;19;20002;-59
2022/10/07 03:02:50;;;;;;;0.00;0.00;;;;;;;15.94;66.32;100641.06;7364875;19;20033;-59
2022/10/07 03:05:20;;;;;;;0.00;0.00;;;;;;;15.93;66.86;100622.69;7355784;19;20142;-57
2022/10/07 03:07:54;;;;;;;0.00;0.00;;;;;;;15.96;66.88;100643.59;7362427;19;20021;-59
2022/10/07 03:10:19;;;;;;;0.10;0.10;;;;;;;15.92;66.99;100626.25;7362923;19;20014;-58
2022/10/07 03:12:45;;;;;;;0.00;0.00;;;;;;;15.91;67.46;100635.06;7362060;19;20011;-58
2022/10/07 03:15:10;;;;;;;0.00;0.00;;;;;;;15.91;67.62;100621.91;7361008;19;20401;-59
2022/10/07 03:17:38;;;;;;;0.00;0.00;;;;;;;15.91;67.57;100624.53;7362524;19;20017;-58
2022/10/07 03:20:04;;;;;;;0.00;0.00;;;;;;;15.89;67.51;100616.72;7352362;19;20022;-58
2022/10/07 03:22:29;;;;;;;0.00;0.00;;;;;;;15.89;67.04;100623.75;7354256;19;20030;-58
2022/10/07 03:24:55;;;;;;;0.08;0.08;;;;;;;15.87;67.73;100605.41;7355279;19;20450;-57
2022/10/07 03:27:20;;;;;;;0.00;0.00;;;;;;;15.90;67.43;100621.03;7355428;19;20008;-58
2022/10/07 03:29:47;;;;;;;0.05;0.05;;;;;;;15.88;67.50;100587.81;7355489;19;21032;-58
2022/10/07 03:32:14;;;;;;;0.00;0.00;;;;;;;15.85;67.91;100593.22;7356506;19;20003;-58
2022/10/07 03:34:39;;;;;;;0.00;0.00;;;;;;;15.73;67.76;100558.63;7358731;19;20048;-58
2022/10/07 03:37:05;;;;;;;0.00;0.00;;;;;;;15.86;67.50;100592.28;7363235;19;20451;-57
2022/10/07 03:39:30;;;;;;;0.00;0.00;;;;;;;15.87;67.37;100601.91;7360245;19;20608;-58
2022/10/07 03:41:56;;;;;;;0.00;0.00;;;;;;;15.87;67.39;100572.94;7359127;19;20006;-58
2022/10/07 03:44:21;;;;;;;0.00;0.00;;;;;;;15.85;68.04;100582.69;7360325;19;20010;-58
2022/10/07 03:46:48;;;;;;;0.00;0.00;;;;;;;15.86;68.13;100581.75;7363460;19;20014;-58
2022/10/07 03:49:14;;;;;;;0.10;0.10;;;;;;;15.86;68.14;100582.59;7359376;19;20011;-59
2022/10/07 03:51:40;;;;;;;0.00;0.00;;;;;;;15.87;67.63;100607.19;7361361;19;20126;-58
2022/10/07 03:54:06;;;;;;;0.00;0.00;;;;;;;15.87;68.05;100565.06;7358096;19;20650;-58
2022/10/07 03:56:32;;;;;;;0.00;0.00;;;;;;;15.87;68.12;100560.63;7361968;19;20706;-58
2022/10/07 03:58:58;;;;;;;0.10;0.10;;;;;;;15.90;67.58;100570.16;7358517;19;20003;-58
2022/10/07 04:01:23;;;;;;;0.08;0.08;;;;;;;15.92;67.78;100568.31;7362048;19;20121;-58
2022/10/07 04:03:49;;;;;;;0.00;0.00;;;;;;;15.91;69.08;100566.59;7359552;19;20086;-57
2022/10/07 04:06:15;;;;;;;0.00;0.00;;;;;;;15.92;69.08;100547.25;7363516;19;20596;-56
2022/10/07 04:08:43;;;;;;;0.00;0.00;;;;;;;15.89;69.82;100557.91;7358811;19;20024;-57
2022/10/07 04:11:10;;;;;;;0.10;0.10;;;;;;;15.87;69.26;100571.16;7361049;19;20027;-57
2022/10/07 04:13:35;;;;;;;0.10;0.10;;;;;;;15.78;70.11;100564.53;7361396;19;20029;-57
2022/10/07 04:16:08;;;;;;;0.00;0.00;;;;;;;15.74;69.66;100567.38;7363254;19;20010;-57
2022/10/07 04:18:34;;;;;;;0.00;0.00;;;;;;;15.65;70.88;100579.19;7358602;19;20135;-58
2022/10/07 04:20:59;;;;;;;0.00;0.00;;;;;;;15.61;71.40;100574.94;7361930;19;20711;-57
2022/10/07 04:23:25;;;;;;;0.00;0.00;;;;;;;15.42;72.22;100548.63;7360941;19;20041;-59
2022/10/07 04:25:51;;;;;;;0.00;0.00;;;;;;;15.42;72.85;100542.50;7361547;19;20010;-57
2022/10/07 04:28:22;;;;;;;0.00;0.00;;;;;;;15.41;72.38;100552.19;7361478;19;20011;-57
2022/10/07 04:30:50;;;;;;;0.00;0.00;;;;;;;15.35;72.91;100543.69;7359514;19;20017;-57
2022/10/07 04:33:17;;;;;;;0.00;0.00;;;;;;;15.30;73.34;100541.25;7361460;19;20030;-56
2022/10/07 04:35:43;;;;;;;0.00;0.00;;;;;;;15.22;73.36;100523.22;7360753;19;20013;-58
2022/10/07 04:38:11;;;;;;;0.00;0.00;;;;;;;15.21;73.72;100541.69;7359875;19;20376;-57
2022/10/07 04:40:41;;;;;;;0.00;0.00;;;;;;;15.19;73.80;100525.97;7359909;19;20005;-57
2022/10/07 04:43:23;;;;;;;0.10;0.10;;;;;;;15.17;73.86;100514.66;7360209;19;20010;-58
2022/10/07 04:45:54;;;;;;;0.03;0.03;;;;;;;15.15;74.25;100523.53;7360958;19;20024;-57
2022/10/07 04:48:22;;;;;;;0.00;0.00;;;;;;;15.14;73.68;100521.84;7361843;19;20042;-56
2022/10/07 04:50:50;;;;;;;0.00;0.00;;;;;;;15.12;74.53;100566.63;7359372;19;20019;-58
2022/10/07 04:53:16;;;;;;;0.00;0.00;;;;;;;15.11;73.88;100564.06;7361315;19;20006;-58
2022/10/07 04:55:50;;;;;;;0.00;0.00;;;;;;;15.09;74.69;100561.47;7359049;19;20013;-58
2022/10/07 04:58:17;;;;;;;0.00;0.00;;;;;;;15.06;74.09;100566.91;7360944;19;20019;-60
2022/10/07 05:00:46;;;;;;;0.00;0.00;;;;;;;15.03;74.67;100548.59;7358157;19;20016;-58
2022/10/07 05:03:13;;;;;;;0.00;0.00;;;;;;;14.95;75.62;100550.69;7360173;19;20014;-58
2022/10/07 05:05:44;;;;;;;0.00;0.00;;;;;;;14.93;75.32;100547.31;7359987;19;20277;-60
2022/10/07 05:08:11;;;;;;;0.00;0.00;;;;;;;14.90;75.95;100534.28;7358711;19;20437;-58
2022/10/07 05:10:38;;;;;;;0.10;0.10;;;;;;;14.89;76.57;100543.94;7361144;19;20745;-59
2022/10/07 05:13:05;;;;;;;0.00;0.00;;;;;;;14.89;77.01;100528.16;7359507;19;20014;-60
2022/10/07 05:15:31;;;;;;;0.00;0.00;;;;;;;14.88;76.87;100522.97;7359323;19;20117;-58
2022/10/07 05:17:56;;;;;;;0.00;0.00;;;;;;;14.85;76.61;100499.44;7359028;19;20455;-59
2022/10/07 05:20:22;;;;;;;0.00;0.00;;;;;;;14.85;76.52;100515.22;7361881;19;20018;-59
2022/10/07 05:22:47;;;;;;;0.10;0.10;;;;;;;14.84;76.65;100508.25;7359596;19;20038;-59
2022/10/07 05:25:13;;;;;;;0.10;0.10;;;;;;;14.82;77.42;100503.06;7360822;19;20010;-59
2022/10/07 05:27:39;;;;;;;0.00;0.00;;;;;;;14.73;77.07;100475.41;7358820;19;20043;-59
2022/10/07 05:30:07;;;;;;;0.00;0.00;;;;;;;14.85;76.72;100502.06;7359025;19;20078;-60
2022/10/07 05:32:32;;;;;;;0.10;0.10;;;;;;;14.82;76.61;100516.22;7359652;19;20013;-60
2022/10/07 05:34:58;;;;;;;0.00;0.00;;;;;;;14.84;77.13;100495.09;7359168;19;20006;-60
2022/10/07 05:37:23;;;;;;;0.00;0.00;;;;;;;14.84;76.84;100505.63;7359691;19;20014;-60
2022/10/07 05:39:49;;;;;;;0.00;0.00;;;;;;;14.87;76.48;100516.88;7356988;19;20090;-61
2022/10/07 05:42:15;;;;;;;0.05;0.05;;;;;;;14.87;76.92;100508.13;7357439;19;20022;-58
2022/10/07 05:44:40;;;;;;;0.00;0.00;;;;;;;14.88;76.91;100530.88;7355097;19;20010;-59
2022/10/07 05:47:06;;;;;;;0.00;0.00;;;;;;;14.77;76.84;100521.66;7360743;19;20002;-59
2022/10/07 05:49:31;;;;;;;0.00;0.00;;;;;;;14.85;77.46;100525.72;7358235;19;20008;-59
2022/10/07 05:51:57;;;;;;;0.10;0.10;;;;;;;14.84;77.87;100524.03;7360857;19;20355;-59
2022/10/07 05:54:23;;;;;;;0.00;0.00;;;;;;;14.84;77.54;100558.19;7364441;19;20106;-59
2022/10/07 05:56:48;;;;;;;0.00;0.00;;;;;;;14.84;77.62;100545.06;7363784;19;20016;-59
2022/10/07 05:59:14;;;;;;;0.03;0.03;;;;;;;14.81;78.25;100546.06;7356480;19;20014;-60
2022/10/07 06:01:41;;;;;;;0.00;0.00;;;;;;;14.82;77.88;100552.16;7367816;19;20319;-58
2022/10/07 06:04:07;;;;;;;0.00;0.00;;;;;;;14.77;77.48;100542.69;7367522;19;20006;-59
2022/10/07 06:06:34;;;;;;;0.10;0.10;;;;;;;14.83;77.60;100553.88;7362644;19;20039;-57
2022/10/07 06:14:28;;;;;;;0.00;0.00;;;;;;;14.77;78.35;100608.41;7362558;19;20503;-58
2022/10/07 06:16:53;;;;;;;0.00;0.00;;;;;;;14.79;77.53;100579.44;7364972;19;20002;-61
2022/10/07 06:19:22;;;;;;;0.00;0.00;;;;;;;14.77;76.28;100574.25;7364654;19;20015;-61
2022/10/07 06:21:48;;;;;;;0.00;0.00;;;;;;;14.71;77.00;100581.53;7362364;19;20014;-61
2022/10/07 06:24:13;;;;;;;0.00;0.00;;;;;;;14.62;76.42;100561.75;7367190;19;20014;-61
2022/10/07 06:26:41;;;;;;;0.10;0.10;;;;;;;14.53;76.04;100583.13;7364521;19;20007;-62
2022/10/07 06:29:07;;;;;;;0.00;0.00;;;;;;;14.42;76.33;100565.16;7364699;19;20012;-58
2022/10/07 06:31:32;;;;;;;0.00;0.00;;;;;;;14.32;76.94;100584.84;7362649;19;20011;-59
2022/10/07 06:33:58;;;;;;;0.00;0.00;;;;;;;14.24;77.15;100593.03;7366602;19;20024;-59
2022/10/07 06:36:23;;;;;;;0.00;0.00;;;;;;;14.17;77.49;100602.06;7362138;19;20010;-59
2022/10/07 06:38:52;;;;;;;0.03;0.03;;;;;;;14.06;78.28;100577.97;7357339;19;20006;-60
2022/10/07 06:41:18;;;;;;;0.00;0.00;;;;;;;14.12;78.22;100604.00;7363138;19;20006;-60
2022/10/07 06:43:43;;;;;;;0.10;0.10;;;;;;;14.07;78.84;100569.19;7364152;19;20025;-60
2022/10/07 06:46:13;;;;;;;0.00;0.00;;;;;;;14.06;79.25;100593.75;7363311;19;20006;-60
2022/10/07 06:48:40;;;;;;;0.00;0.00;;;;;;;14.00;79.22;100571.22;7361913;19;20005;-60
2022/10/07 06:51:12;;;;;;;0.00;0.00;;;;;;;14.06;79.11;100572.75;7366271;19;20411;-58
2022/10/07 06:53:37;;;;;;;0.00;0.00;;;;;;;14.03;79.86;100591.22;7363020;19;20006;-60
2022/10/07 06:56:04;;;;;;;0.05;0.05;;;;;;;14.02;79.54;100587.75;7366729;19;20030;-60
2022/10/07 06:58:30;;;;;;;0.00;0.00;;;;;;;14.03;79.21;100589.44;7363355;19;20009;-60
2022/10/07 07:00:58;;;;;;;0.00;0.00;;;;;;;14.03;79.55;100594.69;7367066;19;20013;-60
2022/10/07 07:03:24;;;;;;;0.00;0.00;;;;;;;14.03;79.49;100583.34;7359939;19;20014;-60
2022/10/07 07:05:50;;;;;;;0.00;0.00;;;;;;;13.99;79.64;100589.66;7360633;19;20007;-61
2022/10/07 07:08:16;;;;;;;0.00;0.00;;;;;;;14.02;79.19;100594.78;7363144;19;20080;-61
2022/10/07 07:10:43;;;;;;;0.00;0.00;;;;;;;14.02;79.37;100607.91;7366532;19;20941;-61
2022/10/07 07:13:10;;;;;;;0.00;0.00;;;;;;;13.98;79.78;100595.78;7364573;19;20081;-60
2022/10/07 07:15:36;;;;;;;0.00;0.00;;;;;;;13.98;79.86;100607.16;7363753;19;20027;-60
2022/10/07 07:18:03;;;;;;;0.00;0.00;;;;;;;13.98;79.76;100595.78;7366600;19;20021;-61
2022/10/07 07:20:34;;;;;;;0.00;0.00;;;;;;;13.96;79.68;100614.25;7364073;19;20367;-60
2022/10/07 07:23:01;;;;;;;0.00;0.00;;;;;;;13.97;79.67;100625.59;7362763;19;20026;-59
2022/10/07 07:25:27;;;;;;;0.00;0.00;;;;;;;13.98;79.86;100627.31;7365168;19;20745;-60
2022/10/07 07:27:54;;;;;;;0.00;0.00;;;;;;;13.97;79.73;100613.31;7362986;19;20019;-61
2022/10/07 07:30:22;;;;;;;0.00;0.00;;;;;;;13.97;79.65;100615.09;7365415;19;20014;-61
2022/10/07 07:32:48;;;;;;;0.00;0.00;;;;;;;13.95;79.96;100611.69;7362699;19;20010;-60
2022/10/07 07:35:13;;;;;;;0.10;0.10;;;;;;;13.94;79.86;100605.59;7362529;19;20026;-61
2022/10/07 07:37:39;;;;;;;0.00;0.00;;;;;;;13.94;79.75;100620.47;7365494;19;21367;-60
2022/10/07 07:40:05;;;;;;;0.10;0.10;;;;;;;13.94;79.74;100623.09;7361046;19;20015;-61
2022/10/07 07:42:30;;;;;;;0.00;0.00;;;;;;;13.91;79.75;100624.06;7362020;19;20018;-60
2022/10/07 07:44:57;;;;;;;0.00;0.00;;;;;;;13.92;79.52;100622.28;7364550;19;20017;-61
2022/10/07 07:47:22;;;;;;;0.00;0.00;;;;;;;13.92;79.99;100624.91;7359208;19;20030;-60
2022/10/07 07:49:49;;;;;;;0.10;0.10;;;;;;;13.81;79.75;100606.09;7363577;19;20042;-60
2022/10/07 07:52:14;;;;;;;0.00;0.00;;;;;;;13.91;79.43;100625.84;7353882;19;20007;-60
2022/10/07 07:54:40;;;;;;;0.00;0.00;;;;;;;13.90;79.58;100618.88;7361706;19;20017;-60
2022/10/07 07:57:07;;;;;;;0.00;0.00;;;;;;;13.91;79.51;100620.59;7360181;19;20006;-60
2022/10/07 07:59:33;;;;;;;0.03;0.03;;;;;;;13.91;79.62;100631.09;7364594;19;20014;-60
2022/10/07 08:01:59;;;;;;;0.05;0.05;;;;;;;13.89;79.81;100623.28;7362832;19;20010;-60
2022/10/07 08:04:25;;;;;;;0.00;0.00;;;;;;;13.91;79.37;100620.59;7362545;19;20014;-61
2022/10/07 08:06:51;;;;;;;0.00;0.00;;;;;;;13.89;79.49;100622.38;7364134;19;20660;-60
2022/10/07 08:09:16;;;;;;;0.05;0.05;;;;;;;13.90;79.90;100618.88;7362947;19;20006;-59
2022/10/07 08:11:44;;;;;;;0.00;0.00;;;;;;;13.91;79.78;100616.19;7359858;19;20002;-61
2022/10/07 08:14:14;;;;;;;0.03;0.03;;;;;;;14.00;79.94;100617.63;7360901;19;20592;-60
2022/10/07 08:16:39;;;;;;;0.00;0.00;;;;;;;14.04;79.97;100621.84;7364442;19;20023;-61
2022/10/07 08:19:05;;;;;;;0.00;0.00;;;;;;;14.02;79.52;100618.41;7364300;19;20011;-60
2022/10/07 08:21:34;;;;;;;0.00;0.00;;;;;;;14.16;79.66;100631.00;7363243;19;20022;-60
2022/10/07 08:24:01;;;;;;;0.00;0.00;;;;;;;14.11;79.36;100628.56;7363636;19;20105;-60
2022/10/07 08:26:27;;;;;;;;;;;;;;;14.24;78.65;100642.06;7364359;19;20003;-60
2022/10/07 08:28:53;;;;;;;0.00;0.00;;;;;;;14.26;78.98;100654.22;7359217;19;20453;-60
2022/10/07 08:31:19;;;;;;;0.00;0.00;;;;;;;14.33;79.47;100656.59;7361116;19;20017;-60
2022/10/07 08:33:48;;;;;;;0.00;0.00;;;;;;;14.43;79.39;100652.72;7361209;19;20734;-61
2022/10/07 08:36:18;;;;;;;0.00;0.00;;;;;;;14.45;79.42;100653.53;7360135;19;20059;-60
2022/10/07 08:38:45;;;;;;;0.00;0.00;;;;;;;14.62;79.26;100652.88;7359447;19;20582;-59
2022/10/07 08:41:38;;;;;;;0.00;0.00;;;;;;;14.80;79.40;100667.91;7363140;19;20045;-61
2022/10/07 08:44:12;;;;;;;0.00;0.00;;;;;;;14.95;79.08;100658.50;7254038;19;2004335;-60
2022/10/07 08:46:47;;;;;;;0.05;0.05;;;;;;;15.10;79.40;100668.41;7358978;19;20003;-61
2022/10/07 08:49:16;;;;;;;0.10;0.10;;;;;;;15.25;79.08;100667.75;7360369;19;20354;-61
2022/10/07 08:51:53;;;;;;;0.00;0.00;;;;;;;15.45;78.51;100666.88;7358534;19;20018;-60
2022/10/07 08:54:32;;;;;;;0.00;0.00;;;;;;;15.63;78.38;100670.53;7360426;19;21020;-61
2022/10/07 08:57:06;;;;;;;0.10;0.10;;;;;;;15.80;78.39;100670.63;7360758;19;20107;-61
2022/10/07 08:59:33;;;;;;;0.00;0.00;;;;;;;15.93;77.95;100665.69;7363542;19;20007;-60
2022/10/07 09:02:30;;;;;;;0.08;0.08;;;;;;;16.18;77.73;100670.69;7359600;19;20010;-60
2022/10/07 09:05:04;;;;;;;0.00;0.00;;;;;;;16.25;77.27;100674.72;7257789;19;2004512;-60
2022/10/07 09:07:35;;;;;;;0.00;0.00;;;;;;;16.47;76.87;100681.63;7361135;19;20014;-60
2022/10/07 09:10:27;;;;;;;0.10;0.10;;;;;;;16.60;76.40;100669.56;7358187;19;20010;-61
2022/10/07 09:12:53;;;;;;;0.00;0.00;;;;;;;16.69;76.15;100666.50;7256712;19;2004380;-59
2022/10/07 09:15:38;;;;;;;0.00;0.00;;;;;;;16.90;75.65;100676.97;7359158;19;20158;-60
2022/10/07 09:18:19;;;;;;;0.10;0.10;;;;;;;17.02;75.63;100684.25;7257474;19;2004373;-60
2022/10/07 09:20:52;;;;;;;0.00;0.00;;;;;;;17.13;75.51;100676.66;7359241;19;20017;-60
2022/10/07 09:23:20;;;;;;;0.00;0.00;;;;;;;17.22;75.01;100681.47;7356798;19;20010;-60
2022/10/07 09:25:45;;;;;;;0.10;0.10;;;;;;;17.34;74.48;100686.16;7358289;19;20403;-59
2022/10/07 09:28:14;;;;;;;0.00;0.00;;;;;;;17.44;74.11;100667.19;7359832;19;20014;-60
2022/10/07 09:30:41;;;;;;;0.00;0.00;;;;;;;17.57;74.08;100681.47;7360624;19;20019;-60
2022/10/07 09:33:19;;;;;;;0.00;0.00;;;;;;;17.73;74.33;100671.81;7360138;19;20378;-60
2022/10/07 09:35:56;;;;;;;0.00;0.00;;;;;;;17.92;73.74;100676.13;7359954;19;20723;-60
2022/10/07 09:38:34;;;;;;;0.10;0.10;;;;;;;18.04;73.97;100668.38;7362297;19;20022;-59
2022/10/07 09:41:21;;;;;;;0.00;0.00;;;;;;;18.25;73.18;100673.44;7359086;19;20023;-60
2022/10/07 09:43:53;;;;;;;0.00;0.00;;;;;;;18.37;72.27;100718.56;7362535;19;20402;-60
2022/10/07 09:46:32;;;;;;;0.00;0.00;;;;;;;18.49;72.19;100665.94;7361710;19;20608;-60
2022/10/07 09:49:03;;;;;;;0.00;0.00;;;;;;;18.45;71.93;100648.53;7362874;19;20009;-60
2022/10/07 09:51:31;;;;;;;0.10;0.10;;;;;;;18.65;71.74;100657.06;7361190;19;20581;-60
2022/10/07 09:54:04;;;;;;;0.10;0.10;;;;;;;18.75;71.40;100657.41;7360387;19;20022;-59
2022/10/07 09:56:38;;;;;;;0.00;0.00;;;;;;;19.02;71.77;100664.72;7360626;19;20007;-59
2022/10/07 09:59:17;;;;;;;0.00;0.00;;;;;;;19.18;71.71;100669.00;7362240;19;20010;-60
2022/10/07 10:01:54;;;;;;;0.10;0.10;;;;;;;19.38;71.63;100673.13;7362823;19;20013;-59
2022/10/07 10:04:26;;;;;;;0.10;0.10;;;;;;;19.57;71.33;100672.03;7358335;19;20028;-59
2022/10/07 10:06:53;;;;;;;0.10;0.10;;;;;;;19.74;70.20;100679.81;7361132;19;20014;-59
2022/10/07 10:09:22;;;;;;;0.00;0.00;;;;;;;19.98;68.84;100668.66;7359615;19;20019;-58
2022/10/07 10:12:12;;;;;;;0.00;0.00;;;;;;;20.15;68.65;100655.19;7358242;19;20010;-60
2022/10/07 10:14:52;;;;;;;0.00;0.00;;;;;;;20.24;68.76;100672.31;7257264;19;2004396;-59
2022/10/07 10:17:29;;;;;;;0.10;0.10;;;;;;;20.23;67.69;100660.88;7361949;19;20014;-59
2022/10/07 10:20:27;;;;;;;0.00;0.00;;;;;;;20.38;68.22;100670.50;7358620;19;20006;-59
2022/10/07 10:22:52;;;;;;;0.10;0.10;;;;;;;20.31;67.06;100673.63;7256157;19;2004234;-59
2022/10/07 10:29:04;;;;;;;0.10;0.10;;;;;;;20.54;67.17;100653.63;7258344;19;2004347;-58
2022/10/07 10:31:44;;;;;;;0.00;0.00;;;;;;;20.77;67.57;100655.59;7253710;19;2004356;-60
2022/10/07 10:34:47;;;;;;;0.10;0.10;;;;;;;20.99;68.35;100655.91;7360973;19;20695;-59
2022/10/07 10:37:37;;;;;;;0.00;0.00;;;;;;;21.15;65.74;100649.56;7256959;19;2004219;-59
2022/10/07 10:40:06;;;;;;;0.10;0.10;;;;;;;21.19;65.88;100651.91;7364518;19;20340;-59
2022/10/07 10:42:44;;;;;;;0.00;0.00;;;;;;;21.42;66.16;100655.66;7366357;19;20015;-59
2022/10/07 10:45:31;;;;;;;0.00;0.00;;;;;;;21.55;63.81;100641.56;7366100;19;20017;-59
2022/10/07 10:47:56;;;;;;;;;;;;;;;21.72;64.83;100654.50;7368762;19;20003;-59
2022/10/07 10:50:24;;;;;;;0.10;0.10;;;;;;;21.61;63.45;100663.22;7364429;19;19967;-59
2022/10/07 10:53:03;;;;;;;0.08;0.08;;;;;;;21.59;63.12;100653.63;7364439;19;20440;-57
2022/10/07 10:55:32;;;;;;;0.00;0.00;;;;;;;21.48;62.33;100652.56;7365370;19;20494;-59
2022/10/07 10:58:06;;;;;;;0.00;0.00;;;;;;;21.49;64.19;100646.34;7361897;19;20022;-59
2022/10/07 11:00:53;;;;;;;0.03;0.03;;;;;;;21.66;64.48;100660.25;7359939;19;20042;-57
2022/10/07 11:03:40;;;;;;;0.00;0.00;;;;;;;21.69;63.48;100660.03;7359341;19;20021;-59
2022/10/07 11:06:10;;;;;;;0.08;0.08;;;;;;;21.69;63.06;100660.88;7366212;19;20011;-59
2022/10/07 11:08:36;;;;;;;0.00;0.00;;;;;;;21.66;62.99;100661.09;7364819;19;20035;-59
2022/10/07 11:11:08;;;;;;;0.10;0.10;;;;;;;21.87;63.01;100664.06;7363704;19;20082;-59
2022/10/07 11:13:53;;;;;;;0.00;0.00;;;;;;;21.91;62.33;100660.22;7361006;19;20011;-59
2022/10/07 11:16:31;;;;;;;0.10;0.10;;;;;;;21.95;62.36;100661.72;7365084;19;20027;-59
2022/10/07 11:19:15;;;;;;;0.00;0.00;;;;;;;22.21;62.96;100673.19;7363819;19;20049;-59
2022/10/07 11:21:48;;;;;;;0.00;0.00;;;;;;;22.25;60.98;100674.69;7364611;19;20477;-59
2022/10/07 11:24:16;;;;;;;0.10;0.10;;;;;;;22.26;60.85;100670.19;7363850;19;20006;-60
2022/10/07 11:27:26;;;;;;;0.10;0.10;;;;;;;22.41;60.55;100666.44;7366988;19;20021;-60
2022/10/07 11:30:01;;;;;;;0.10;0.10;;;;;;;22.57;61.47;100662.66;7260234;19;2004331;-59
2022/10/07 11:32:37;;;;;;;0.00;0.00;;;;;;;22.62;60.58;100665.81;7354680;19;20007;-59
2022/10/07 11:35:28;;;;;;;0.10;0.10;;;;;;;22.83;61.24;100666.88;7363324;19;20003;-60
2022/10/07 11:38:09;;;;;;;0.10;0.10;;;;;;;22.83;57.53;100672.22;7257541;19;2004409;-59
2022/10/07 11:40:48;;;;;;;0.10;0.10;;;;;;;23.05;60.18;100674.97;7357801;19;20553;-59
2022/10/07 11:43:24;;;;;;;0.00;0.00;;;;;;;23.17;57.69;100669.72;7356981;19;20013;-59
2022/10/07 11:45:55;;;;;;;0.00;0.00;;;;;;;23.29;58.06;100674.09;7353108;19;20040;-58
2022/10/07 11:48:31;;;;;;;0.10;0.10;;;;;;;23.50;58.39;100664.44;7360969;19;20786;-59
2022/10/07 11:51:01;;;;;;;0.10;0.10;;;;;;;23.62;56.38;100675.13;7357066;19;20022;-60